sensor_id;sensor_type;location;lat;lon;timestamp;P1;durP1;ratioP1;P2;durP2;ratioP2
9234;SDS011;4652;42.716;23.218;2023-04-07T00:03:22;12.33;;;9.47;;
9234;SDS011;4652;42.716;23.218;2023-04-07T00:10:06;14.93;;;10.13;;
9234;SDS011;4652;42.716;23.218;2023-04-07T00:16:48;13.00;;;9.97;;
9234;SDS011;4652;42.716;23.218;2023-04-07T00:23:30;14.13;;;10.67;;
9234;SDS011;4652;42.716;23.218;2023-04-07T00:30:13;13.90;;;9.73;;
9234;SDS011;4652;42.716;23.218;2023-04-07T00:36:57;11.40;;;9.80;;
9234;SDS011;4652;42.716;23.218;2023-04-07T00:43:38;12.07;;;9.43;;
9234;SDS011;4652;42.716;23.218;2023-04-07T00:50:22;10.77;;;8.80;;
9234;SDS011;4652;42.716;23.218;2023-04-07T00:57:04;14.13;;;8.77;;
9234;SDS011;4652;42.716;23.218;2023-04-07T07:08:07;7.20;;;6.50;;
9234;SDS011;4652;42.716;23.218;2023-04-07T07:14:48;7.13;;;6.27;;
9234;SDS011;4652;42.716;23.218;2023-04-07T07:21:31;7.20;;;6.50;;
9234;SDS011;4652;42.716;23.218;2023-04-07T07:28:14;8.20;;;6.37;;
9234;SDS011;4652;42.716;23.218;2023-04-07T07:34:56;7.07;;;6.37;;
9234;SDS011;4652;42.716;23.218;2023-04-07T07:41:38;10.23;;;6.83;;
9234;SDS011;4652;42.716;23.218;2023-04-07T07:48:22;6.47;;;5.83;;
9234;SDS011;4652;42.716;23.218;2023-04-07T07:55:04;7.23;;;6.20;;
9234;SDS011;4652;42.716;23.218;2023-04-07T08:01:46;8.10;;;6.43;;
9234;SDS011;4652;42.716;23.218;2023-04-07T08:08:29;10.20;;;6.17;;
9234;SDS011;4652;42.716;23.218;2023-04-07T08:15:11;7.13;;;6.43;;
9234;SDS011;4652;42.716;23.218;2023-04-07T08:21:53;9.87;;;6.20;;
9234;SDS011;4652;42.716;23.218;2023-04-07T08:28:36;7.33;;;6.50;;
9234;SDS011;4652;42.716;23.218;2023-04-07T08:35:19;7.27;;;5.77;;
9234;SDS011;4652;42.716;23.218;2023-04-07T08:42:01;6.53;;;5.90;;
9234;SDS011;4652;42.716;23.218;2023-04-07T08:48:45;7.77;;;6.90;;
9234;SDS011;4652;42.716;23.218;2023-04-07T08:55:31;7.90;;;7.10;;
9234;SDS011;4652;42.716;23.218;2023-04-07T09:02:15;8.33;;;7.53;;
9234;SDS011;4652;42.716;23.218;2023-04-07T09:09:00;7.63;;;6.60;;
9234;SDS011;4652;42.716;23.218;2023-04-07T09:15:42;7.60;;;6.90;;
9234;SDS011;4652;42.716;23.218;2023-04-07T09:22:34;7.60;;;6.50;;
9234;SDS011;4652;42.716;23.218;2023-04-07T09:29:19;8.07;;;7.27;;
9234;SDS011;4652;42.716;23.218;2023-04-07T09:36:01;9.60;;;7.80;;
9234;SDS011;4652;42.716;23.218;2023-04-07T09:42:44;8.00;;;7.30;;
9234;SDS011;4652;42.716;23.218;2023-04-07T09:49:28;8.20;;;7.40;;
9234;SDS011;4652;42.716;23.218;2023-04-07T09:56:10;8.37;;;7.43;;
9234;SDS011;4652;42.716;23.218;2023-04-07T10:02:53;8.23;;;7.43;;
9234;SDS011;4652;42.716;23.218;2023-04-07T10:09:38;8.27;;;6.70;;
9234;SDS011;4652;42.716;23.218;2023-04-07T10:16:20;7.77;;;6.97;;
9234;SDS011;4652;42.716;23.218;2023-04-07T10:23:05;9.37;;;7.60;;
9234;SDS011;4652;42.716;23.218;2023-04-07T10:29:54;8.03;;;7.23;;
9234;SDS011;4652;42.716;23.218;2023-04-07T10:37:06;7.77;;;6.90;;
9234;SDS011;4652;42.716;23.218;2023-04-07T10:43:49;12.50;;;9.40;;
9234;SDS011;4652;42.716;23.218;2023-04-07T10:50:33;9.30;;;8.17;;
9234;SDS011;4652;42.716;23.218;2023-04-07T10:57:15;30.03;;;26.83;;
9234;SDS011;4652;42.716;23.218;2023-04-07T11:03:57;34.70;;;23.57;;
9234;SDS011;4652;42.716;23.218;2023-04-07T11:10:41;12.23;;;10.13;;
9234;SDS011;4652;42.716;23.218;2023-04-07T11:17:28;15.30;;;13.70;;
9234;SDS011;4652;42.716;23.218;2023-04-07T11:24:11;197.13;;;124.23;;
9234;SDS011;4652;42.716;23.218;2023-04-07T11:31:19;262.87;;;159.17;;
9234;SDS011;4652;42.716;23.218;2023-04-07T11:38:02;126.30;;;68.70;;
9234;SDS011;4652;42.716;23.218;2023-04-07T11:44:45;44.53;;;31.93;;
9234;SDS011;4652;42.716;23.218;2023-04-07T11:51:28;186.43;;;106.87;;
9234;SDS011;4652;42.716;23.218;2023-04-07T11:58:12;30.37;;;24.97;;
9234;SDS011;4652;42.716;23.218;2023-04-07T12:04:54;13.37;;;10.33;;
9234;SDS011;4652;42.716;23.218;2023-04-07T12:11:47;15.10;;;12.80;;
9234;SDS011;4652;42.716;23.218;2023-04-07T12:18:30;13.87;;;12.33;;
9234;SDS011;4652;42.716;23.218;2023-04-07T12:25:12;15.30;;;11.63;;
9234;SDS011;4652;42.716;23.218;2023-04-07T12:31:56;12.53;;;10.07;;
9234;SDS011;4652;42.716;23.218;2023-04-07T12:38:38;11.20;;;9.77;;
9234;SDS011;4652;42.716;23.218;2023-04-07T12:45:20;16.27;;;12.37;;
9234;SDS011;4652;42.716;23.218;2023-04-07T12:52:03;14.80;;;9.70;;
9234;SDS011;4652;42.716;23.218;2023-04-07T12:58:46;16.63;;;12.93;;
9234;SDS011;4652;42.716;23.218;2023-04-07T13:45:16;14.33;;;12.93;;
9234;SDS011;4652;42.716;23.218;2023-04-07T13:51:58;16.40;;;13.57;;
9234;SDS011;4652;42.716;23.218;2023-04-07T13:58:40;17.03;;;11.90;;
9234;SDS011;4652;42.716;23.218;2023-04-07T14:05:24;19.77;;;15.73;;
9234;SDS011;4652;42.716;23.218;2023-04-07T14:12:05;14.83;;;13.27;;
9234;SDS011;4652;42.716;23.218;2023-04-07T14:18:48;14.43;;;12.00;;
9234;SDS011;4652;42.716;23.218;2023-04-07T14:25:32;13.77;;;12.13;;
9234;SDS011;4652;42.716;23.218;2023-04-07T14:32:14;16.07;;;12.93;;
9234;SDS011;4652;42.716;23.218;2023-04-07T14:38:56;11.73;;;9.83;;
9234;SDS011;4652;42.716;23.218;2023-04-07T14:45:39;17.23;;;14.90;;
9234;SDS011;4652;42.716;23.218;2023-04-07T14:52:21;10.93;;;9.83;;
9234;SDS011;4652;42.716;23.218;2023-04-07T14:59:03;14.20;;;11.00;;
9234;SDS011;4652;42.716;23.218;2023-04-07T15:05:46;13.27;;;11.87;;
9234;SDS011;4652;42.716;23.218;2023-04-07T15:12:28;15.07;;;12.93;;
9234;SDS011;4652;42.716;23.218;2023-04-07T15:19:12;15.97;;;13.97;;
9234;SDS011;4652;42.716;23.218;2023-04-07T15:25:56;11.60;;;10.40;;
9234;SDS011;4652;42.716;23.218;2023-04-07T15:32:39;12.00;;;10.80;;
9234;SDS011;4652;42.716;23.218;2023-04-07T15:39:21;12.40;;;10.63;;
9234;SDS011;4652;42.716;23.218;2023-04-07T15:46:04;20.13;;;15.03;;
9234;SDS011;4652;42.716;23.218;2023-04-07T15:52:46;25.63;;;19.27;;
9234;SDS011;4652;42.716;23.218;2023-04-07T15:59:28;14.00;;;10.80;;
9234;SDS011;4652;42.716;23.218;2023-04-07T16:06:11;24.87;;;19.50;;
9234;SDS011;4652;42.716;23.218;2023-04-07T16:12:53;20.10;;;15.90;;
9234;SDS011;4652;42.716;23.218;2023-04-07T16:19:35;11.17;;;9.93;;
9234;SDS011;4652;42.716;23.218;2023-04-07T16:26:19;14.30;;;12.80;;
9234;SDS011;4652;42.716;23.218;2023-04-07T16:33:00;13.23;;;10.43;;
9234;SDS011;4652;42.716;23.218;2023-04-07T16:39:42;11.53;;;10.33;;
9234;SDS011;4652;42.716;23.218;2023-04-07T16:46:27;13.93;;;10.40;;
9234;SDS011;4652;42.716;23.218;2023-04-07T16:53:09;11.20;;;10.00;;
9234;SDS011;4652;42.716;23.218;2023-04-07T16:59:51;11.53;;;10.43;;
9234;SDS011;4652;42.716;23.218;2023-04-07T17:06:35;11.37;;;10.17;;
9234;SDS011;4652;42.716;23.218;2023-04-07T17:13:17;11.63;;;10.43;;
9234;SDS011;4652;42.716;23.218;2023-04-07T17:19:59;10.77;;;9.77;;
9234;SDS011;4652;42.716;23.218;2023-04-07T17:26:42;11.37;;;10.17;;
9234;SDS011;4652;42.716;23.218;2023-04-07T17:33:25;14.13;;;12.63;;
9234;SDS011;4652;42.716;23.218;2023-04-07T17:40:07;12.37;;;10.50;;
9234;SDS011;4652;42.716;23.218;2023-04-07T17:46:51;11.13;;;10.03;;
9234;SDS011;4652;42.716;23.218;2023-04-07T17:53:33;11.70;;;10.50;;
9234;SDS011;4652;42.716;23.218;2023-04-07T18:00:16;12.40;;;10.83;;
9234;SDS011;4652;42.716;23.218;2023-04-07T18:06:59;17.07;;;12.83;;
9234;SDS011;4652;42.716;23.218;2023-04-07T18:13:41;13.90;;;12.17;;
9234;SDS011;4652;42.716;23.218;2023-04-07T18:20:23;17.43;;;13.93;;
9234;SDS011;4652;42.716;23.218;2023-04-07T18:27:08;19.73;;;15.30;;
9234;SDS011;4652;42.716;23.218;2023-04-07T18:33:50;17.57;;;15.70;;
9234;SDS011;4652;42.716;23.218;2023-04-07T18:40:32;20.97;;;16.90;;
9234;SDS011;4652;42.716;23.218;2023-04-07T18:47:15;30.23;;;20.43;;
9234;SDS011;4652;42.716;23.218;2023-04-07T18:53:57;27.03;;;20.10;;
9234;SDS011;4652;42.716;23.218;2023-04-07T19:08:09;26.00;;;19.17;;
9234;SDS011;4652;42.716;23.218;2023-04-07T19:14:51;26.60;;;20.77;;
9234;SDS011;4652;42.716;23.218;2023-04-07T19:21:33;25.73;;;19.90;;
9234;SDS011;4652;42.716;23.218;2023-04-07T19:28:16;27.60;;;21.17;;
9234;SDS011;4652;42.716;23.218;2023-04-07T19:34:58;26.00;;;19.93;;
9234;SDS011;4652;42.716;23.218;2023-04-07T19:41:41;26.83;;;20.20;;
9234;SDS011;4652;42.716;23.218;2023-04-07T19:48:24;19.43;;;16.67;;
9234;SDS011;4652;42.716;23.218;2023-04-07T19:55:07;19.97;;;15.07;;
9234;SDS011;4652;42.716;23.218;2023-04-07T20:01:52;14.93;;;13.33;;
9234;SDS011;4652;42.716;23.218;2023-04-07T20:08:37;17.73;;;14.87;;
9234;SDS011;4652;42.716;23.218;2023-04-07T20:15:19;18.73;;;15.07;;
9234;SDS011;4652;42.716;23.218;2023-04-07T20:22:03;15.63;;;13.63;;
9234;SDS011;4652;42.716;23.218;2023-04-07T20:28:47;17.00;;;13.63;;
9234;SDS011;4652;42.716;23.218;2023-04-07T20:35:29;18.27;;;15.50;;
9234;SDS011;4652;42.716;23.218;2023-04-07T20:42:10;17.93;;;14.07;;
9234;SDS011;4652;42.716;23.218;2023-04-07T20:48:54;17.00;;;13.83;;
9234;SDS011;4652;42.716;23.218;2023-04-07T20:55:36;17.50;;;14.50;;
9234;SDS011;4652;42.716;23.218;2023-04-07T21:02:18;30.30;;;21.97;;
9234;SDS011;4652;42.716;23.218;2023-04-07T21:09:02;34.63;;;24.60;;
9234;SDS011;4652;42.716;23.218;2023-04-07T21:15:44;33.67;;;24.27;;
9234;SDS011;4652;42.716;23.218;2023-04-07T21:22:26;30.43;;;22.40;;
9234;SDS011;4652;42.716;23.218;2023-04-07T21:29:10;26.17;;;20.27;;
9234;SDS011;4652;42.716;23.218;2023-04-07T21:35:51;23.90;;;19.63;;
9234;SDS011;4652;42.716;23.218;2023-04-07T21:42:34;26.77;;;19.97;;
9234;SDS011;4652;42.716;23.218;2023-04-07T21:49:17;25.50;;;18.87;;
9234;SDS011;4652;42.716;23.218;2023-04-07T21:56:01;28.10;;;22.47;;
9234;SDS011;4652;42.716;23.218;2023-04-07T22:02:43;32.30;;;23.13;;
9234;SDS011;4652;42.716;23.218;2023-04-07T22:09:27;33.63;;;24.90;;
9234;SDS011;4652;42.716;23.218;2023-04-07T22:16:10;37.17;;;27.30;;
9234;SDS011;4652;42.716;23.218;2023-04-07T22:22:52;35.20;;;26.17;;
9234;SDS011;4652;42.716;23.218;2023-04-07T22:29:37;37.50;;;27.47;;
9234;SDS011;4652;42.716;23.218;2023-04-07T22:36:19;39.37;;;30.13;;
9234;SDS011;4652;42.716;23.218;2023-04-07T22:43:01;48.53;;;33.23;;
9234;SDS011;4652;42.716;23.218;2023-04-07T22:49:44;49.63;;;33.43;;
9234;SDS011;4652;42.716;23.218;2023-04-07T22:56:26;33.80;;;23.97;;
9234;SDS011;4652;42.716;23.218;2023-04-07T23:03:08;33.63;;;25.07;;
9234;SDS011;4652;42.716;23.218;2023-04-07T23:09:51;30.27;;;23.77;;
9234;SDS011;4652;42.716;23.218;2023-04-07T23:16:33;30.20;;;23.43;;
9234;SDS011;4652;42.716;23.218;2023-04-07T23:23:15;29.83;;;23.53;;
9234;SDS011;4652;42.716;23.218;2023-04-07T23:29:59;29.60;;;22.53;;
9234;SDS011;4652;42.716;23.218;2023-04-07T23:36:41;31.50;;;23.90;;
9234;SDS011;4652;42.716;23.218;2023-04-07T23:43:23;31.43;;;23.27;;
9234;SDS011;4652;42.716;23.218;2023-04-07T23:50:08;30.63;;;22.43;;
9234;SDS011;4652;42.716;23.218;2023-04-07T23:56:50;25.33;;;19.60;;
